sensor_id;sensor_type;location;lat;lon;timestamp;P1;durP1;ratioP1;P2;durP2;ratioP2
76477;SDS011;65309;49.790;18.972;2022-11-20T00:01:41;11.05;;;7.63;;
76477;SDS011;65309;49.790;18.972;2022-11-20T00:06:45;18.85;;;11.25;;
76477;SDS011;65309;49.790;18.972;2022-11-20T00:11:48;21.45;;;9.80;;
76477;SDS011;65309;49.790;18.972;2022-11-20T00:16:50;12.95;;;8.70;;
76477;SDS011;65309;49.790;18.972;2022-11-20T00:21:53;20.23;;;9.80;;
76477;SDS011;65309;49.790;18.972;2022-11-20T00:31:58;23.73;;;11.95;;
76477;SDS011;65309;49.790;18.972;2022-11-20T00:37:01;12.75;;;6.80;;
76477;SDS011;65309;49.790;18.972;2022-11-20T00:42:03;11.13;;;7.18;;
76477;SDS011;65309;49.790;18.972;2022-11-20T00:47:06;10.82;;;9.27;;
76477;SDS011;65309;49.790;18.972;2022-11-20T00:52:09;15.50;;;8.27;;
76477;SDS011;65309;49.790;18.972;2022-11-20T00:57:11;20.75;;;9.60;;
76477;SDS011;65309;49.790;18.972;2022-11-20T01:02:13;19.65;;;8.18;;
76477;SDS011;65309;49.790;18.972;2022-11-20T01:07:18;11.05;;;6.80;;
76477;SDS011;65309;49.790;18.972;2022-11-20T01:12:20;15.55;;;7.95;;
76477;SDS011;65309;49.790;18.972;2022-11-20T01:17:22;15.60;;;8.95;;
76477;SDS011;65309;49.790;18.972;2022-11-20T01:22:25;13.05;;;7.65;;
76477;SDS011;65309;49.790;18.972;2022-11-20T01:27:27;17.60;;;10.02;;
76477;SDS011;65309;49.790;18.972;2022-11-20T01:32:29;14.80;;;7.85;;
76477;SDS011;65309;49.790;18.972;2022-11-20T01:37:33;10.10;;;6.80;;
76477;SDS011;65309;49.790;18.972;2022-11-20T01:42:35;7.20;;;5.80;;
76477;SDS011;65309;49.790;18.972;2022-11-20T01:47:55;14.90;;;7.53;;
76477;SDS011;65309;49.790;18.972;2022-11-20T01:52:59;11.35;;;5.82;;
76477;SDS011;65309;49.790;18.972;2022-11-20T01:58:05;14.30;;;6.43;;
76477;SDS011;65309;49.790;18.972;2022-11-20T02:03:08;9.63;;;5.70;;
76477;SDS011;65309;49.790;18.972;2022-11-20T02:08:14;12.05;;;6.25;;
76477;SDS011;65309;49.790;18.972;2022-11-20T02:13:17;8.52;;;5.53;;
76477;SDS011;65309;49.790;18.972;2022-11-20T02:18:37;13.38;;;7.43;;
76477;SDS011;65309;49.790;18.972;2022-11-20T02:23:50;4.82;;;3.60;;
76477;SDS011;65309;49.790;18.972;2022-11-20T02:28:55;22.92;;;4.72;;
76477;SDS011;65309;49.790;18.972;2022-11-20T02:33:58;10.85;;;5.93;;
76477;SDS011;65309;49.790;18.972;2022-11-20T02:39:02;11.73;;;5.03;;
76477;SDS011;65309;49.790;18.972;2022-11-20T02:44:04;10.15;;;5.82;;
76477;SDS011;65309;49.790;18.972;2022-11-20T02:49:07;12.40;;;6.55;;
76477;SDS011;65309;49.790;18.972;2022-11-20T02:54:10;10.20;;;5.95;;
76477;SDS011;65309;49.790;18.972;2022-11-20T02:59:12;7.97;;;6.10;;
76477;SDS011;65309;49.790;18.972;2022-11-20T03:04:14;9.88;;;5.90;;
76477;SDS011;65309;49.790;18.972;2022-11-20T03:09:17;6.07;;;5.47;;
76477;SDS011;65309;49.790;18.972;2022-11-20T03:14:20;13.20;;;7.40;;
76477;SDS011;65309;49.790;18.972;2022-11-20T03:19:22;12.90;;;6.18;;
76477;SDS011;65309;49.790;18.972;2022-11-20T03:24:26;11.35;;;4.85;;
76477;SDS011;65309;49.790;18.972;2022-11-20T03:29:28;12.43;;;6.15;;
76477;SDS011;65309;49.790;18.972;2022-11-20T03:34:30;12.02;;;6.40;;
76477;SDS011;65309;49.790;18.972;2022-11-20T03:39:33;13.02;;;6.90;;
76477;SDS011;65309;49.790;18.972;2022-11-20T03:44:35;6.18;;;4.65;;
76477;SDS011;65309;49.790;18.972;2022-11-20T03:49:37;8.43;;;5.53;;
76477;SDS011;65309;49.790;18.972;2022-11-20T03:54:40;14.95;;;6.50;;
76477;SDS011;65309;49.790;18.972;2022-11-20T03:59:42;11.23;;;5.85;;
76477;SDS011;65309;49.790;18.972;2022-11-20T04:04:44;9.80;;;6.55;;
76477;SDS011;65309;49.790;18.972;2022-11-20T04:09:48;13.43;;;6.57;;
76477;SDS011;65309;49.790;18.972;2022-11-20T04:14:50;9.40;;;6.55;;
76477;SDS011;65309;49.790;18.972;2022-11-20T04:19:51;7.80;;;5.00;;
76477;SDS011;65309;49.790;18.972;2022-11-20T04:24:55;9.43;;;5.15;;
76477;SDS011;65309;49.790;18.972;2022-11-20T04:29:57;16.25;;;6.90;;
76477;SDS011;65309;49.790;18.972;2022-11-20T04:34:59;16.33;;;6.97;;
76477;SDS011;65309;49.790;18.972;2022-11-20T04:40:02;9.93;;;6.50;;
76477;SDS011;65309;49.790;18.972;2022-11-20T04:45:05;15.70;;;8.95;;
76477;SDS011;65309;49.790;18.972;2022-11-20T04:50:08;10.55;;;6.35;;
76477;SDS011;65309;49.790;18.972;2022-11-20T04:55:12;9.25;;;5.78;;
76477;SDS011;65309;49.790;18.972;2022-11-20T05:00:14;7.22;;;4.38;;
76477;SDS011;65309;49.790;18.972;2022-11-20T05:05:17;13.25;;;6.68;;
76477;SDS011;65309;49.790;18.972;2022-11-20T05:10:20;11.38;;;7.55;;
76477;SDS011;65309;49.790;18.972;2022-11-20T05:15:22;13.95;;;5.30;;
76477;SDS011;65309;49.790;18.972;2022-11-20T05:20:25;11.45;;;6.47;;
76477;SDS011;65309;49.790;18.972;2022-11-20T05:25:28;8.05;;;6.78;;
76477;SDS011;65309;49.790;18.972;2022-11-20T05:30:30;15.13;;;7.80;;
76477;SDS011;65309;49.790;18.972;2022-11-20T05:35:32;13.32;;;6.57;;
76477;SDS011;65309;49.790;18.972;2022-11-20T05:40:35;12.57;;;7.22;;
76477;SDS011;65309;49.790;18.972;2022-11-20T05:45:38;11.60;;;7.60;;
76477;SDS011;65309;49.790;18.972;2022-11-20T05:50:40;13.77;;;4.55;;
76477;SDS011;65309;49.790;18.972;2022-11-20T05:55:43;12.27;;;6.20;;
76477;SDS011;65309;49.790;18.972;2022-11-20T06:00:45;12.00;;;8.35;;
76477;SDS011;65309;49.790;18.972;2022-11-20T06:05:47;6.20;;;4.00;;
76477;SDS011;65309;49.790;18.972;2022-11-20T06:10:50;13.15;;;8.48;;
76477;SDS011;65309;49.790;18.972;2022-11-20T06:15:53;11.98;;;6.35;;
76477;SDS011;65309;49.790;18.972;2022-11-20T06:20:59;7.07;;;5.53;;
76477;SDS011;65309;49.790;18.972;2022-11-20T06:26:04;12.55;;;7.47;;
76477;SDS011;65309;49.790;18.972;2022-11-20T06:31:09;8.70;;;5.70;;
76477;SDS011;65309;49.790;18.972;2022-11-20T06:36:13;10.25;;;7.32;;
76477;SDS011;65309;49.790;18.972;2022-11-20T06:41:18;5.57;;;5.05;;
76477;SDS011;65309;49.790;18.972;2022-11-20T06:46:22;14.52;;;6.68;;
76477;SDS011;65309;49.790;18.972;2022-11-20T06:51:24;11.63;;;8.10;;
76477;SDS011;65309;49.790;18.972;2022-11-20T06:56:27;7.93;;;5.65;;
76477;SDS011;65309;49.790;18.972;2022-11-20T07:01:29;10.52;;;5.28;;
76477;SDS011;65309;49.790;18.972;2022-11-20T07:06:31;10.30;;;6.35;;
76477;SDS011;65309;49.790;18.972;2022-11-20T07:11:35;5.85;;;4.00;;
76477;SDS011;65309;49.790;18.972;2022-11-20T07:16:37;13.35;;;7.55;;
76477;SDS011;65309;49.790;18.972;2022-11-20T07:21:39;13.13;;;7.80;;
76477;SDS011;65309;49.790;18.972;2022-11-20T07:26:42;12.13;;;6.93;;
76477;SDS011;65309;49.790;18.972;2022-11-20T07:31:47;12.13;;;7.50;;
76477;SDS011;65309;49.790;18.972;2022-11-20T07:36:49;16.10;;;9.48;;
76477;SDS011;65309;49.790;18.972;2022-11-20T07:41:52;20.98;;;10.60;;
76477;SDS011;65309;49.790;18.972;2022-11-20T07:46:54;11.82;;;7.78;;
76477;SDS011;65309;49.790;18.972;2022-11-20T07:51:56;9.98;;;6.05;;
76477;SDS011;65309;49.790;18.972;2022-11-20T07:57:06;14.52;;;8.82;;
76477;SDS011;65309;49.790;18.972;2022-11-20T08:02:09;13.40;;;9.25;;
76477;SDS011;65309;49.790;18.972;2022-11-20T08:07:11;13.43;;;8.68;;
76477;SDS011;65309;49.790;18.972;2022-11-20T08:12:17;15.50;;;8.43;;
76477;SDS011;65309;49.790;18.972;2022-11-20T08:17:39;16.15;;;8.75;;
76477;SDS011;65309;49.790;18.972;2022-11-20T08:22:41;15.20;;;9.20;;
76477;SDS011;65309;49.790;18.972;2022-11-20T08:27:45;19.10;;;10.70;;
76477;SDS011;65309;49.790;18.972;2022-11-20T08:32:47;11.00;;;7.85;;
76477;SDS011;65309;49.790;18.972;2022-11-20T08:37:49;16.17;;;7.93;;
76477;SDS011;65309;49.790;18.972;2022-11-20T08:42:52;22.38;;;11.48;;
76477;SDS011;65309;49.790;18.972;2022-11-20T08:47:59;19.08;;;11.88;;
76477;SDS011;65309;49.790;18.972;2022-11-20T08:53:02;24.50;;;13.10;;
76477;SDS011;65309;49.790;18.972;2022-11-20T08:58:06;20.95;;;12.13;;
76477;SDS011;65309;49.790;18.972;2022-11-20T09:03:08;17.70;;;11.32;;
76477;SDS011;65309;49.790;18.972;2022-11-20T09:08:10;32.78;;;15.90;;
76477;SDS011;65309;49.790;18.972;2022-11-20T09:13:14;22.05;;;12.40;;
76477;SDS011;65309;49.790;18.972;2022-11-20T09:18:16;20.45;;;8.20;;
76477;SDS011;65309;49.790;18.972;2022-11-20T09:23:18;29.67;;;13.38;;
76477;SDS011;65309;49.790;18.972;2022-11-20T09:28:21;23.80;;;11.30;;
76477;SDS011;65309;49.790;18.972;2022-11-20T09:33:23;32.13;;;14.98;;
76477;SDS011;65309;49.790;18.972;2022-11-20T09:38:25;29.33;;;13.80;;
76477;SDS011;65309;49.790;18.972;2022-11-20T09:43:30;26.27;;;12.77;;
76477;SDS011;65309;49.790;18.972;2022-11-20T09:48:54;33.30;;;16.60;;
76477;SDS011;65309;49.790;18.972;2022-11-20T09:54:08;23.52;;;13.05;;
76477;SDS011;65309;49.790;18.972;2022-11-20T09:59:26;26.33;;;13.95;;
76477;SDS011;65309;49.790;18.972;2022-11-20T10:04:33;22.35;;;12.52;;
76477;SDS011;65309;49.790;18.972;2022-11-20T10:15:06;23.10;;;13.55;;
76477;SDS011;65309;49.790;18.972;2022-11-20T10:20:16;21.55;;;12.77;;
76477;SDS011;65309;49.790;18.972;2022-11-20T10:25:26;21.23;;;13.90;;
76477;SDS011;65309;49.790;18.972;2022-11-20T10:30:37;26.63;;;15.02;;
76477;SDS011;65309;49.790;18.972;2022-11-20T10:35:44;33.50;;;18.85;;
76477;SDS011;65309;49.790;18.972;2022-11-20T10:40:51;23.83;;;12.60;;
76477;SDS011;65309;49.790;18.972;2022-11-20T10:46:18;31.88;;;17.58;;
76477;SDS011;65309;49.790;18.972;2022-11-20T10:51:30;30.08;;;15.23;;
76477;SDS011;65309;49.790;18.972;2022-11-20T10:56:38;34.67;;;18.10;;
76477;SDS011;65309;49.790;18.972;2022-11-20T11:01:51;23.23;;;13.85;;
76477;SDS011;65309;49.790;18.972;2022-11-20T11:06:54;20.25;;;13.02;;
76477;SDS011;65309;49.790;18.972;2022-11-20T11:12:00;22.25;;;12.32;;
76477;SDS011;65309;49.790;18.972;2022-11-20T11:17:18;23.80;;;13.77;;
76477;SDS011;65309;49.790;18.972;2022-11-20T11:22:23;35.42;;;17.85;;
76477;SDS011;65309;49.790;18.972;2022-11-20T11:27:25;32.20;;;17.13;;
76477;SDS011;65309;49.790;18.972;2022-11-20T11:32:28;35.10;;;19.17;;
76477;SDS011;65309;49.790;18.972;2022-11-20T11:37:32;27.65;;;16.38;;
76477;SDS011;65309;49.790;18.972;2022-11-20T11:42:40;25.13;;;15.15;;
76477;SDS011;65309;49.790;18.972;2022-11-20T11:47:46;29.58;;;15.50;;
76477;SDS011;65309;49.790;18.972;2022-11-20T11:52:52;34.55;;;16.42;;
76477;SDS011;65309;49.790;18.972;2022-11-20T11:58:09;41.95;;;19.33;;
76477;SDS011;65309;49.790;18.972;2022-11-20T12:03:20;36.88;;;18.58;;
76477;SDS011;65309;49.790;18.972;2022-11-20T12:08:27;35.33;;;19.35;;
76477;SDS011;65309;49.790;18.972;2022-11-20T12:13:36;33.15;;;16.23;;
76477;SDS011;65309;49.790;18.972;2022-11-20T12:18:47;35.33;;;19.00;;
76477;SDS011;65309;49.790;18.972;2022-11-20T12:31:34;32.53;;;19.55;;
76477;SDS011;65309;49.790;18.972;2022-11-20T12:36:55;42.95;;;21.02;;
76477;SDS011;65309;49.790;18.972;2022-11-20T12:42:07;43.13;;;23.40;;
76477;SDS011;65309;49.790;18.972;2022-11-20T12:53:04;41.10;;;21.67;;
76477;SDS011;65309;49.790;18.972;2022-11-20T12:58:12;41.45;;;20.77;;
76477;SDS011;65309;49.790;18.972;2022-11-20T13:03:34;39.40;;;20.83;;
76477;SDS011;65309;49.790;18.972;2022-11-20T13:08:42;43.35;;;20.95;;
76477;SDS011;65309;49.790;18.972;2022-11-20T13:13:56;41.17;;;21.00;;
76477;SDS011;65309;49.790;18.972;2022-11-20T13:19:09;43.67;;;21.40;;
76477;SDS011;65309;49.790;18.972;2022-11-20T13:24:20;44.63;;;21.73;;
76477;SDS011;65309;49.790;18.972;2022-11-20T13:29:27;38.72;;;20.60;;
76477;SDS011;65309;49.790;18.972;2022-11-20T13:34:31;50.97;;;22.65;;
76477;SDS011;65309;49.790;18.972;2022-11-20T13:39:34;51.08;;;23.90;;
76477;SDS011;65309;49.790;18.972;2022-11-20T13:44:39;34.90;;;19.02;;
76477;SDS011;65309;49.790;18.972;2022-11-20T13:49:45;43.35;;;25.27;;
76477;SDS011;65309;49.790;18.972;2022-11-20T13:54:55;26.25;;;13.38;;
76477;SDS011;65309;49.790;18.972;2022-11-20T14:00:09;36.88;;;20.70;;
76477;SDS011;65309;49.790;18.972;2022-11-20T14:05:17;27.23;;;16.35;;
76477;SDS011;65309;49.790;18.972;2022-11-20T14:10:23;29.08;;;13.70;;
76477;SDS011;65309;49.790;18.972;2022-11-20T14:15:33;20.98;;;12.18;;
76477;SDS011;65309;49.790;18.972;2022-11-20T14:20:40;8.85;;;6.05;;
76477;SDS011;65309;49.790;18.972;2022-11-20T14:25:43;10.50;;;5.78;;
76477;SDS011;65309;49.790;18.972;2022-11-20T14:30:47;18.27;;;9.52;;
76477;SDS011;65309;49.790;18.972;2022-11-20T14:35:52;39.17;;;20.88;;
76477;SDS011;65309;49.790;18.972;2022-11-20T14:41:05;44.72;;;21.98;;
76477;SDS011;65309;49.790;18.972;2022-11-20T14:46:08;37.95;;;20.70;;
76477;SDS011;65309;49.790;18.972;2022-11-20T14:56:24;39.90;;;22.50;;
76477;SDS011;65309;49.790;18.972;2022-11-20T15:01:26;11.35;;;6.70;;
76477;SDS011;65309;49.790;18.972;2022-11-20T15:06:31;11.73;;;7.30;;
76477;SDS011;65309;49.790;18.972;2022-11-20T15:11:33;14.20;;;6.15;;
76477;SDS011;65309;49.790;18.972;2022-11-20T15:16:37;12.55;;;6.45;;
76477;SDS011;65309;49.790;18.972;2022-11-20T15:21:42;9.60;;;6.03;;
76477;SDS011;65309;49.790;18.972;2022-11-20T15:26:44;10.63;;;6.05;;
76477;SDS011;65309;49.790;18.972;2022-11-20T15:31:46;9.82;;;5.85;;
76477;SDS011;65309;49.790;18.972;2022-11-20T15:36:49;10.13;;;6.65;;
76477;SDS011;65309;49.790;18.972;2022-11-20T15:41:51;14.10;;;7.90;;
76477;SDS011;65309;49.790;18.972;2022-11-20T15:46:53;9.88;;;6.18;;
76477;SDS011;65309;49.790;18.972;2022-11-20T15:51:57;14.57;;;8.25;;
76477;SDS011;65309;49.790;18.972;2022-11-20T15:56:59;15.18;;;8.32;;
76477;SDS011;65309;49.790;18.972;2022-11-20T16:02:02;14.23;;;8.20;;
76477;SDS011;65309;49.790;18.972;2022-11-20T16:07:05;7.07;;;4.88;;
76477;SDS011;65309;49.790;18.972;2022-11-20T16:12:08;9.50;;;6.55;;
76477;SDS011;65309;49.790;18.972;2022-11-20T16:17:31;15.20;;;6.65;;
76477;SDS011;65309;49.790;18.972;2022-11-20T16:22:45;12.20;;;4.68;;
76477;SDS011;65309;49.790;18.972;2022-11-20T16:27:47;8.27;;;5.65;;
76477;SDS011;65309;49.790;18.972;2022-11-20T16:32:49;9.60;;;5.22;;
76477;SDS011;65309;49.790;18.972;2022-11-20T16:37:52;9.02;;;5.45;;
76477;SDS011;65309;49.790;18.972;2022-11-20T16:42:55;4.72;;;3.72;;
76477;SDS011;65309;49.790;18.972;2022-11-20T16:47:59;10.52;;;4.47;;
76477;SDS011;65309;49.790;18.972;2022-11-20T16:53:02;9.00;;;5.03;;
76477;SDS011;65309;49.790;18.972;2022-11-20T16:58:04;7.60;;;4.90;;
76477;SDS011;65309;49.790;18.972;2022-11-20T17:03:07;8.52;;;5.03;;
76477;SDS011;65309;49.790;18.972;2022-11-20T17:08:11;10.15;;;6.50;;
76477;SDS011;65309;49.790;18.972;2022-11-20T17:13:13;7.32;;;3.85;;
76477;SDS011;65309;49.790;18.972;2022-11-20T17:18:15;16.67;;;9.13;;
76477;SDS011;65309;49.790;18.972;2022-11-20T17:23:18;43.47;;;22.63;;
76477;SDS011;65309;49.790;18.972;2022-11-20T17:28:20;19.95;;;12.15;;
76477;SDS011;65309;49.790;18.972;2022-11-20T17:33:22;28.23;;;15.52;;
76477;SDS011;65309;49.790;18.972;2022-11-20T17:38:26;11.43;;;5.32;;
76477;SDS011;65309;49.790;18.972;2022-11-20T17:43:28;10.05;;;5.20;;
76477;SDS011;65309;49.790;18.972;2022-11-20T17:48:36;7.47;;;3.95;;
76477;SDS011;65309;49.790;18.972;2022-11-20T17:53:40;6.18;;;3.45;;
76477;SDS011;65309;49.790;18.972;2022-11-20T17:58:44;6.43;;;3.45;;
76477;SDS011;65309;49.790;18.972;2022-11-20T18:03:46;5.82;;;3.92;;
76477;SDS011;65309;49.790;18.972;2022-11-20T18:08:49;7.68;;;3.83;;
76477;SDS011;65309;49.790;18.972;2022-11-20T18:19:14;5.65;;;4.22;;
76477;SDS011;65309;49.790;18.972;2022-11-20T18:24:20;8.18;;;5.07;;
76477;SDS011;65309;49.790;18.972;2022-11-20T18:29:23;6.53;;;4.18;;
76477;SDS011;65309;49.790;18.972;2022-11-20T18:34:26;7.15;;;4.22;;
76477;SDS011;65309;49.790;18.972;2022-11-20T18:39:30;6.05;;;4.18;;
76477;SDS011;65309;49.790;18.972;2022-11-20T18:44:33;7.60;;;4.57;;
76477;SDS011;65309;49.790;18.972;2022-11-20T18:49:54;7.53;;;4.57;;
76477;SDS011;65309;49.790;18.972;2022-11-20T18:54:59;7.38;;;4.00;;
76477;SDS011;65309;49.790;18.972;2022-11-20T19:00:03;12.00;;;4.38;;
76477;SDS011;65309;49.790;18.972;2022-11-20T19:05:10;7.68;;;3.95;;
76477;SDS011;65309;49.790;18.972;2022-11-20T19:10:16;11.10;;;5.13;;
76477;SDS011;65309;49.790;18.972;2022-11-20T19:15:20;10.05;;;5.75;;
76477;SDS011;65309;49.790;18.972;2022-11-20T19:20:23;11.32;;;5.63;;
76477;SDS011;65309;49.790;18.972;2022-11-20T19:25:26;7.68;;;4.22;;
76477;SDS011;65309;49.790;18.972;2022-11-20T19:30:28;8.25;;;4.45;;
76477;SDS011;65309;49.790;18.972;2022-11-20T19:35:30;7.70;;;4.95;;
76477;SDS011;65309;49.790;18.972;2022-11-20T19:40:33;7.97;;;4.97;;
76477;SDS011;65309;49.790;18.972;2022-11-20T19:45:36;10.32;;;5.03;;
76477;SDS011;65309;49.790;18.972;2022-11-20T19:50:37;6.57;;;4.28;;
76477;SDS011;65309;49.790;18.972;2022-11-20T19:55:41;8.27;;;3.90;;
76477;SDS011;65309;49.790;18.972;2022-11-20T20:00:46;6.80;;;3.85;;
76477;SDS011;65309;49.790;18.972;2022-11-20T20:05:48;6.38;;;3.40;;
76477;SDS011;65309;49.790;18.972;2022-11-20T20:10:51;5.90;;;3.35;;
76477;SDS011;65309;49.790;18.972;2022-11-20T20:16:00;6.88;;;3.95;;
76477;SDS011;65309;49.790;18.972;2022-11-20T20:21:02;7.20;;;3.63;;
76477;SDS011;65309;49.790;18.972;2022-11-20T20:26:06;7.72;;;4.57;;
76477;SDS011;65309;49.790;18.972;2022-11-20T20:31:10;9.07;;;4.68;;
76477;SDS011;65309;49.790;18.972;2022-11-20T20:41:18;6.68;;;3.58;;
76477;SDS011;65309;49.790;18.972;2022-11-20T20:46:22;8.00;;;5.00;;
76477;SDS011;65309;49.790;18.972;2022-11-20T20:51:24;7.28;;;4.30;;
76477;SDS011;65309;49.790;18.972;2022-11-20T20:56:28;7.93;;;4.20;;
76477;SDS011;65309;49.790;18.972;2022-11-20T21:01:30;10.38;;;4.40;;
76477;SDS011;65309;49.790;18.972;2022-11-20T21:06:32;8.50;;;4.43;;
76477;SDS011;65309;49.790;18.972;2022-11-20T21:11:35;7.63;;;4.28;;
76477;SDS011;65309;49.790;18.972;2022-11-20T21:16:37;9.13;;;4.45;;
76477;SDS011;65309;49.790;18.972;2022-11-20T21:21:44;7.85;;;4.07;;
76477;SDS011;65309;49.790;18.972;2022-11-20T21:27:04;8.65;;;4.72;;
76477;SDS011;65309;49.790;18.972;2022-11-20T21:37:09;5.55;;;3.03;;
76477;SDS011;65309;49.790;18.972;2022-11-20T21:42:12;6.78;;;3.47;;
76477;SDS011;65309;49.790;18.972;2022-11-20T21:47:15;7.10;;;3.25;;
76477;SDS011;65309;49.790;18.972;2022-11-20T21:52:17;7.55;;;3.92;;
76477;SDS011;65309;49.790;18.972;2022-11-20T21:57:20;18.30;;;11.52;;
76477;SDS011;65309;49.790;18.972;2022-11-20T22:02:22;30.35;;;15.02;;
76477;SDS011;65309;49.790;18.972;2022-11-20T22:07:24;32.53;;;13.80;;
76477;SDS011;65309;49.790;18.972;2022-11-20T22:12:28;50.90;;;27.85;;
76477;SDS011;65309;49.790;18.972;2022-11-20T22:17:30;62.60;;;35.35;;
76477;SDS011;65309;49.790;18.972;2022-11-20T22:22:50;64.95;;;31.30;;
76477;SDS011;65309;49.790;18.972;2022-11-20T22:27:53;53.78;;;26.13;;
76477;SDS011;65309;49.790;18.972;2022-11-20T22:32:55;68.45;;;34.47;;
76477;SDS011;65309;49.790;18.972;2022-11-20T22:37:57;22.50;;;12.32;;
76477;SDS011;65309;49.790;18.972;2022-11-20T22:43:01;12.23;;;7.95;;
76477;SDS011;65309;49.790;18.972;2022-11-20T22:48:03;12.80;;;8.20;;
76477;SDS011;65309;49.790;18.972;2022-11-20T22:53:05;13.77;;;8.60;;
76477;SDS011;65309;49.790;18.972;2022-11-20T22:58:08;11.98;;;6.80;;
76477;SDS011;65309;49.790;18.972;2022-11-20T23:03:10;12.60;;;6.22;;
76477;SDS011;65309;49.790;18.972;2022-11-20T23:08:12;11.02;;;6.88;;
76477;SDS011;65309;49.790;18.972;2022-11-20T23:13:15;12.65;;;7.72;;
76477;SDS011;65309;49.790;18.972;2022-11-20T23:18:17;16.58;;;10.07;;
76477;SDS011;65309;49.790;18.972;2022-11-20T23:23:20;14.80;;;8.23;;
76477;SDS011;65309;49.790;18.972;2022-11-20T23:28:23;15.52;;;8.32;;
76477;SDS011;65309;49.790;18.972;2022-11-20T23:33:25;14.52;;;7.68;;
76477;SDS011;65309;49.790;18.972;2022-11-20T23:38:27;14.02;;;7.68;;
76477;SDS011;65309;49.790;18.972;2022-11-20T23:43:30;15.70;;;8.15;;
76477;SDS011;65309;49.790;18.972;2022-11-20T23:48:33;17.35;;;9.13;;
76477;SDS011;65309;49.790;18.972;2022-11-20T23:58:40;10.25;;;4.68;;
